createdAt,value
2023-03-31T00:01:53.009Z,10.30
2023-03-31T00:04:24.279Z,10.29
2023-03-31T00:06:54.245Z,10.28
2023-03-31T00:09:22.272Z,10.30
2023-03-31T00:11:49.801Z,10.28
2023-03-31T00:14:18.164Z,10.29
2023-03-31T00:16:45.151Z,10.29
2023-03-31T00:19:18.059Z,10.30
2023-03-31T00:21:45.870Z,10.28
2023-03-31T00:24:12.840Z,10.32
2023-03-31T00:26:39.510Z,10.31
2023-03-31T00:29:08.003Z,10.32
2023-03-31T00:31:35.019Z,10.32
2023-03-31T00:34:02.660Z,10.32
2023-03-31T00:36:29.164Z,10.33
2023-03-31T00:39:09.405Z,10.32
2023-03-31T00:41:39.303Z,10.34
2023-03-31T00:44:08.579Z,10.34
2023-03-31T00:46:42.778Z,10.32
2023-03-31T00:49:16.258Z,10.34
2023-03-31T00:51:43.983Z,10.34
2023-03-31T00:54:11.647Z,10.38
2023-03-31T00:56:41.880Z,10.38
2023-03-31T00:59:11.617Z,10.38
2023-03-31T01:01:42.887Z,10.37
2023-03-31T01:04:11.457Z,10.37
2023-03-31T01:06:50.268Z,10.41
2023-03-31T01:09:17.002Z,10.43
2023-03-31T01:11:46.248Z,10.45
2023-03-31T01:14:12.955Z,10.43
2023-03-31T01:16:39.910Z,10.47
2023-03-31T01:19:21.276Z,10.46
2023-03-31T01:22:05.737Z,10.45
2023-03-31T01:24:54.774Z,10.43
2023-03-31T01:27:54.093Z,10.41
2023-03-31T01:30:48.350Z,10.39
2023-03-31T01:33:38.752Z,10.38
2023-03-31T01:36:36.286Z,10.37
2023-03-31T01:39:17.901Z,10.37
2023-03-31T01:42:00.305Z,10.34
2023-03-31T01:44:38.659Z,10.33
2023-03-31T01:47:11.236Z,10.34
2023-03-31T01:49:49.739Z,10.34
2023-03-31T01:52:22.162Z,10.34
2023-03-31T01:54:53.981Z,10.30
2023-03-31T01:57:28.994Z,10.29
2023-03-31T02:00:14.413Z,10.27
2023-03-31T02:02:43.879Z,10.31
2023-03-31T02:05:15.626Z,10.31
2023-03-31T02:08:02.967Z,10.31
2023-03-31T02:10:32.653Z,10.33
2023-03-31T02:13:01.495Z,10.32
2023-03-31T02:15:33.754Z,10.35
2023-03-31T02:18:03.689Z,10.36
2023-03-31T02:20:32.532Z,10.39
2023-03-31T02:22:59.739Z,10.38
2023-03-31T02:25:36.294Z,10.40
2023-03-31T02:28:10.647Z,10.41
2023-03-31T02:30:46.031Z,10.43
2023-03-31T02:33:12.456Z,10.45
2023-03-31T02:35:39.054Z,10.46
2023-03-31T02:38:06.740Z,10.46
2023-03-31T02:40:33.160Z,10.46
2023-03-31T02:42:59.827Z,10.47
2023-03-31T02:45:50.822Z,10.46
2023-03-31T02:48:30.934Z,10.44
2023-03-31T02:51:03.289Z,10.46
2023-03-31T02:53:56.322Z,10.47
2023-03-31T02:56:54.159Z,10.46
2023-03-31T02:59:45.714Z,10.45
2023-03-31T03:02:38.238Z,10.42
2023-03-31T03:05:28.242Z,10.41
2023-03-31T03:08:22.577Z,10.42
2023-03-31T03:11:08.113Z,10.43
2023-03-31T03:13:47.135Z,10.44
2023-03-31T03:16:36.854Z,10.35
2023-03-31T03:19:06.506Z,10.37
2023-03-31T03:21:33.413Z,10.35
2023-03-31T03:24:01.657Z,10.37
2023-03-31T03:26:28.705Z,10.33
2023-03-31T03:28:56.951Z,10.32
2023-03-31T03:31:26.006Z,10.30
2023-03-31T03:33:53.098Z,10.29
2023-03-31T03:36:19.908Z,10.30
2023-03-31T03:38:46.380Z,10.29
2023-03-31T03:41:12.768Z,10.31
2023-03-31T03:43:39.133Z,10.29
2023-03-31T03:46:05.802Z,10.28
2023-03-31T03:48:32.438Z,10.27
2023-03-31T03:51:02.122Z,10.25
2023-03-31T03:53:28.609Z,10.22
2023-03-31T03:55:55.169Z,10.22
2023-03-31T03:58:21.647Z,10.23
2023-03-31T04:00:48.111Z,10.22
2023-03-31T04:03:15.206Z,10.17
2023-03-31T04:05:41.681Z,10.17
2023-03-31T04:08:08.774Z,10.15
2023-03-31T04:10:36.266Z,10.12
2023-03-31T04:13:03.059Z,10.13
2023-03-31T04:15:29.664Z,10.09
2023-03-31T04:17:58.129Z,10.08
2023-03-31T04:20:27.749Z,10.07
2023-03-31T04:22:54.690Z,10.02
2023-03-31T04:25:22.793Z,10.02
2023-03-31T04:27:54.743Z,10.01
2023-03-31T04:30:23.102Z,10.01
2023-03-31T04:32:55.479Z,10.01
2023-03-31T04:35:23.214Z,10.00
2023-03-31T04:37:52.393Z,10.02
2023-03-31T04:40:19.621Z,9.99
2023-03-31T04:42:45.993Z,10.00
2023-03-31T04:45:12.791Z,9.99
2023-03-31T04:47:39.317Z,9.98
2023-03-31T04:50:06.649Z,9.98
2023-03-31T04:52:33.021Z,9.95
2023-03-31T04:54:59.377Z,9.94
2023-03-31T04:57:25.991Z,9.96
2023-03-31T04:59:52.480Z,10.00
2023-03-31T05:02:25.057Z,10.01
2023-03-31T05:04:52.427Z,10.02
2023-03-31T05:07:19.402Z,10.03
2023-03-31T05:09:46.443Z,10.04
2023-03-31T05:12:12.906Z,9.99
2023-03-31T05:14:39.424Z,10.02
2023-03-31T05:17:05.811Z,10.01
2023-03-31T05:19:32.222Z,10.01
2023-03-31T05:21:58.698Z,10.06
2023-03-31T05:24:25.256Z,10.09
2023-03-31T05:26:53.077Z,10.06
2023-03-31T05:29:19.686Z,10.08
2023-03-31T05:31:46.476Z,10.11
2023-03-31T05:34:13.965Z,10.10
2023-03-31T05:36:40.381Z,10.08
2023-03-31T05:39:07.997Z,10.08
2023-03-31T05:41:34.843Z,10.08
2023-03-31T05:44:02.154Z,10.08
2023-03-31T05:46:28.721Z,10.07
2023-03-31T05:48:56.409Z,10.07
2023-03-31T05:51:23.821Z,10.06
2023-03-31T05:53:56.178Z,10.07
2023-03-31T05:56:24.036Z,10.07
2023-03-31T05:58:52.378Z,10.10
2023-03-31T06:01:23.651Z,10.11
2023-03-31T06:03:51.574Z,10.11
2023-03-31T06:06:18.310Z,10.13
2023-03-31T06:08:48.481Z,10.13
2023-03-31T06:11:19.395Z,10.11
2023-03-31T06:13:46.517Z,10.14
2023-03-31T06:16:14.672Z,10.14
2023-03-31T06:18:41.592Z,10.16
2023-03-31T06:21:11.408Z,10.16
2023-03-31T06:23:37.753Z,10.20
2023-03-31T06:26:08.508Z,10.20
2023-03-31T06:28:36.338Z,10.20
2023-03-31T06:31:08.088Z,10.21
2023-03-31T06:33:34.949Z,10.21
2023-03-31T06:36:04.256Z,10.21
2023-03-31T06:38:30.889Z,10.19
2023-03-31T06:40:57.387Z,10.19
2023-03-31T06:43:23.898Z,10.21
2023-03-31T06:45:53.369Z,10.22
2023-03-31T06:48:20.861Z,10.24
2023-03-31T06:50:47.265Z,10.25
2023-03-31T06:53:13.713Z,10.29
2023-03-31T06:55:40.266Z,10.29
2023-03-31T06:58:06.724Z,10.29
2023-03-31T07:00:34.120Z,10.30
2023-03-31T07:03:01.415Z,10.32
2023-03-31T07:05:28.759Z,10.32
2023-03-31T07:07:56.988Z,10.36
2023-03-31T07:10:24.405Z,10.33
2023-03-31T07:12:50.911Z,10.34
2023-03-31T07:15:17.719Z,10.35
2023-03-31T07:17:44.617Z,10.31
2023-03-31T07:20:15.021Z,10.32
2023-03-31T07:22:42.499Z,10.32
2023-03-31T07:25:10.703Z,10.36
2023-03-31T07:27:37.757Z,10.33
2023-03-31T07:30:08.845Z,10.33
2023-03-31T07:32:40.129Z,10.33
2023-03-31T07:35:07.811Z,10.34
2023-03-31T07:37:38.414Z,10.36
2023-03-31T07:40:06.371Z,10.32
2023-03-31T07:42:33.965Z,10.30
2023-03-31T07:45:00.594Z,10.32
2023-03-31T07:47:27.764Z,10.33
2023-03-31T07:49:54.589Z,10.37
2023-03-31T07:52:21.661Z,10.41
2023-03-31T07:54:48.213Z,10.42
2023-03-31T07:57:16.706Z,10.41
2023-03-31T07:59:43.222Z,10.41
2023-03-31T08:02:14.069Z,10.42
2023-03-31T08:04:42.300Z,10.41
2023-03-31T08:07:09.597Z,10.42
2023-03-31T08:09:36.496Z,10.42
2023-03-31T08:12:03.064Z,10.43
2023-03-31T08:14:38.275Z,10.42
2023-03-31T08:17:07.247Z,10.44
2023-03-31T08:19:33.981Z,10.45
2023-03-31T08:22:00.356Z,10.48
2023-03-31T08:24:26.684Z,10.53
2023-03-31T08:26:53.086Z,10.58
2023-03-31T08:29:19.446Z,10.62
2023-03-31T08:31:45.950Z,10.63
2023-03-31T08:34:12.410Z,10.64
2023-03-31T08:36:38.838Z,10.62
2023-03-31T08:39:06.393Z,10.61
2023-03-31T08:41:48.075Z,10.61
2023-03-31T08:44:37.836Z,10.66
2023-03-31T08:47:07.680Z,10.68
2023-03-31T08:49:43.844Z,10.72
2023-03-31T08:52:15.609Z,10.76
2023-03-31T08:54:45.847Z,10.80
2023-03-31T08:57:25.251Z,10.87
2023-03-31T08:59:52.624Z,10.88
2023-03-31T09:02:48.511Z,10.93
2023-03-31T09:05:27.264Z,10.97
2023-03-31T09:08:06.704Z,11.01
2023-03-31T09:10:43.935Z,11.02
2023-03-31T09:13:10.389Z,11.04
2023-03-31T09:15:47.524Z,11.07
2023-03-31T09:18:36.615Z,11.05
2023-03-31T09:21:12.682Z,11.08
2023-03-31T09:23:59.847Z,11.11
2023-03-31T09:26:35.997Z,11.14
2023-03-31T09:29:08.771Z,11.18
2023-03-31T09:31:35.744Z,11.26
2023-03-31T09:34:13.409Z,11.32
2023-03-31T09:36:39.819Z,11.39
2023-03-31T09:39:06.450Z,11.47
2023-03-31T09:41:34.234Z,11.51
2023-03-31T09:44:01.444Z,11.54
2023-03-31T09:46:35.206Z,11.52
2023-03-31T09:49:06.752Z,11.51
2023-03-31T09:51:37.369Z,11.55
2023-03-31T09:54:29.572Z,11.59
2023-03-31T09:56:56.256Z,11.59
2023-03-31T09:59:34.183Z,11.63
2023-03-31T10:02:05.066Z,11.73
2023-03-31T10:04:35.440Z,11.81
2023-03-31T10:07:05.062Z,11.82
2023-03-31T10:09:34.271Z,11.80
2023-03-31T10:12:15.717Z,11.81
2023-03-31T10:14:46.170Z,11.89
2023-03-31T10:17:21.451Z,11.96
2023-03-31T10:19:49.777Z,12.03
2023-03-31T10:22:27.739Z,12.13
2023-03-31T10:25:07.424Z,12.19
2023-03-31T10:27:34.362Z,12.32
2023-03-31T10:30:04.246Z,12.44
2023-03-31T10:32:32.825Z,12.43
2023-03-31T10:35:33.096Z,12.38
2023-03-31T10:38:11.848Z,12.36
2023-03-31T10:40:41.268Z,12.36
2023-03-31T10:43:20.245Z,12.44
2023-03-31T10:45:52.686Z,12.50
2023-03-31T10:48:24.857Z,12.51
2023-03-31T10:50:51.265Z,12.52
2023-03-31T10:53:18.461Z,12.48
2023-03-31T10:56:07.915Z,12.46
2023-03-31T10:58:58.356Z,12.48
2023-03-31T11:01:52.834Z,12.40
2023-03-31T11:04:43.422Z,12.32
2023-03-31T11:07:37.226Z,12.28
2023-03-31T11:10:20.921Z,12.22
2023-03-31T11:12:53.246Z,12.19
2023-03-31T11:15:34.047Z,12.13
2023-03-31T11:18:32.313Z,12.14
2023-03-31T11:21:23.731Z,12.10
2023-03-31T11:24:04.182Z,12.12
2023-03-31T11:26:54.941Z,12.10
2023-03-31T11:29:40.548Z,12.12
2023-03-31T11:32:45.916Z,12.09
2023-03-31T11:35:31.224Z,12.08
2023-03-31T11:38:17.233Z,12.10
2023-03-31T11:40:43.773Z,12.10
2023-03-31T11:43:10.293Z,12.12
2023-03-31T11:46:17.449Z,12.12
2023-03-31T11:48:55.208Z,12.10
2023-03-31T11:51:31.536Z,12.09
2023-03-31T11:54:02.471Z,12.00
2023-03-31T11:56:40.747Z,11.92
2023-03-31T11:59:12.258Z,11.81
2023-03-31T12:01:44.738Z,11.76
2023-03-31T12:04:30.441Z,11.71
2023-03-31T12:07:03.886Z,11.68
2023-03-31T12:09:47.029Z,11.62
2023-03-31T12:12:20.850Z,11.57
2023-03-31T12:14:53.051Z,11.54
2023-03-31T12:17:25.937Z,11.47
2023-03-31T12:19:56.730Z,11.47
2023-03-31T12:22:32.397Z,11.46
2023-03-31T12:24:59.684Z,11.45
2023-03-31T12:27:40.372Z,11.42
2023-03-31T12:30:13.236Z,11.33
2023-03-31T12:33:18.553Z,11.32
2023-03-31T12:36:14.446Z,11.29
2023-03-31T12:38:45.750Z,11.31
2023-03-31T12:41:30.155Z,11.36
2023-03-31T12:44:05.552Z,11.36
2023-03-31T12:46:40.975Z,11.33
2023-03-31T12:49:42.360Z,11.29
2023-03-31T12:52:22.750Z,11.24
2023-03-31T12:55:11.018Z,11.20
2023-03-31T12:57:37.647Z,11.26
2023-03-31T13:00:25.916Z,11.30
2023-03-31T13:03:30.464Z,11.34
2023-03-31T13:05:56.927Z,11.34
2023-03-31T13:08:55.474Z,11.37
2023-03-31T13:11:30.787Z,11.43
2023-03-31T13:14:03.031Z,11.46
2023-03-31T13:16:31.266Z,11.51
2023-03-31T13:18:58.207Z,11.56
2023-03-31T13:21:24.806Z,11.54
2023-03-31T13:23:51.815Z,11.52
2023-03-31T13:26:35.605Z,11.55
2023-03-31T13:29:20.530Z,11.54
2023-03-31T13:32:08.225Z,11.52
2023-03-31T13:34:42.300Z,11.51
2023-03-31T13:37:29.198Z,11.46
2023-03-31T13:40:08.235Z,11.42
2023-03-31T13:42:52.821Z,11.42
2023-03-31T13:45:43.183Z,11.43
2023-03-31T13:48:29.246Z,11.43
2023-03-31T13:51:13.640Z,11.44
2023-03-31T13:53:57.708Z,11.45
2023-03-31T13:56:38.866Z,11.46
2023-03-31T13:59:41.348Z,11.51
2023-03-31T14:02:27.955Z,11.49
2023-03-31T14:05:12.884Z,11.47
2023-03-31T14:07:46.234Z,11.47
2023-03-31T14:10:25.646Z,11.45
2023-03-31T14:12:52.792Z,11.42
2023-03-31T14:15:21.334Z,11.37
2023-03-31T14:17:48.248Z,11.31
2023-03-31T14:20:37.752Z,11.25
2023-03-31T14:23:20.424Z,11.26
2023-03-31T14:26:10.480Z,11.34
2023-03-31T14:28:44.736Z,11.40
2023-03-31T14:31:35.064Z,11.42
2023-03-31T14:34:37.232Z,11.44
2023-03-31T14:37:09.639Z,11.41
2023-03-31T14:39:48.501Z,11.43
2023-03-31T14:42:17.966Z,11.43
2023-03-31T14:44:47.867Z,11.38
2023-03-31T14:47:23.953Z,11.31
2023-03-31T14:50:13.400Z,11.26
2023-03-31T14:52:39.885Z,11.18
2023-03-31T14:55:06.907Z,11.17
2023-03-31T14:57:38.173Z,11.21
2023-03-31T15:00:10.381Z,11.27
2023-03-31T15:02:47.030Z,11.35
2023-03-31T15:05:32.033Z,11.40
2023-03-31T15:08:02.267Z,11.44
2023-03-31T15:10:35.433Z,11.47
2023-03-31T15:13:07.850Z,11.50
2023-03-31T15:15:34.262Z,11.50
2023-03-31T15:18:01.414Z,11.48
2023-03-31T15:20:29.788Z,11.45
2023-03-31T15:22:57.164Z,11.37
2023-03-31T15:25:39.227Z,11.30
2023-03-31T15:28:13.701Z,11.31
2023-03-31T15:30:40.406Z,11.31
2023-03-31T15:33:18.845Z,11.24
2023-03-31T15:35:46.346Z,11.19
2023-03-31T15:38:18.693Z,11.14
2023-03-31T15:40:54.135Z,11.11
2023-03-31T15:43:32.518Z,11.12
2023-03-31T15:46:00.903Z,11.12
2023-03-31T15:48:48.387Z,11.12
2023-03-31T15:51:14.693Z,11.08
2023-03-31T15:54:01.028Z,11.05
2023-03-31T15:56:40.452Z,11.04
2023-03-31T15:59:22.511Z,10.98
2023-03-31T16:01:52.018Z,10.95
2023-03-31T16:04:18.664Z,10.90
2023-03-31T16:06:47.154Z,10.88
2023-03-31T16:09:19.440Z,10.86
2023-03-31T16:11:52.177Z,10.84
2023-03-31T16:14:25.055Z,10.87
2023-03-31T16:17:01.431Z,10.85
2023-03-31T16:19:31.305Z,10.84
2023-03-31T16:22:01.998Z,10.84
2023-03-31T16:24:34.764Z,10.81
2023-03-31T16:27:06.456Z,10.78
2023-03-31T16:29:35.893Z,10.75
2023-03-31T16:32:20.946Z,10.72
2023-03-31T16:35:04.610Z,10.70
2023-03-31T16:37:47.454Z,10.66
2023-03-31T16:40:13.909Z,10.68
2023-03-31T16:42:40.293Z,10.67
2023-03-31T16:47:36.666Z,10.61
2023-03-31T16:50:07.521Z,10.56
2023-03-31T16:52:35.862Z,10.53
2023-03-31T16:55:02.244Z,10.51
2023-03-31T16:57:44.790Z,10.51
2023-03-31T17:00:13.065Z,10.50
2023-03-31T17:02:39.790Z,10.51
2023-03-31T17:05:41.293Z,10.47
2023-03-31T17:08:18.900Z,10.44
2023-03-31T17:10:58.136Z,10.41
2023-03-31T17:13:24.670Z,10.39
2023-03-31T17:15:55.768Z,10.39
2023-03-31T17:18:31.095Z,10.33
2023-03-31T17:21:10.224Z,10.33
2023-03-31T17:23:37.336Z,10.35
2023-03-31T17:26:12.834Z,10.30
2023-03-31T17:28:39.991Z,10.30
2023-03-31T17:31:14.350Z,10.29
2023-03-31T17:33:41.738Z,10.26
2023-03-31T17:36:18.616Z,10.24
2023-03-31T17:38:45.328Z,10.22
2023-03-31T17:41:13.125Z,10.21
2023-03-31T17:43:40.107Z,10.21
2023-03-31T17:46:11.042Z,10.17
2023-03-31T17:48:40.312Z,10.15
2023-03-31T17:51:13.870Z,10.15
2023-03-31T17:53:45.359Z,10.12
2023-03-31T17:56:12.732Z,10.13
2023-03-31T17:58:39.630Z,10.15
2023-03-31T18:01:08.880Z,10.14
2023-03-31T18:03:36.581Z,10.16
2023-03-31T18:06:08.645Z,10.18
2023-03-31T18:08:35.256Z,10.17
2023-03-31T18:11:03.308Z,10.16
2023-03-31T18:13:30.326Z,10.17
2023-03-31T18:15:56.853Z,10.11
2023-03-31T18:18:26.387Z,10.10
2023-03-31T18:20:52.907Z,10.11
2023-03-31T18:23:20.054Z,10.10
2023-03-31T18:25:47.179Z,10.10
2023-03-31T18:28:17.788Z,10.11
2023-03-31T18:30:44.760Z,10.12
2023-03-31T18:33:11.618Z,10.11
2023-03-31T18:35:38.717Z,10.11
2023-03-31T18:38:05.457Z,10.12
2023-03-31T18:40:31.963Z,10.13
2023-03-31T18:42:58.501Z,10.11
2023-03-31T18:45:24.853Z,10.09
2023-03-31T18:47:51.309Z,10.09
2023-03-31T18:50:17.976Z,10.09
2023-03-31T18:52:44.839Z,10.09
2023-03-31T18:55:11.883Z,10.09
2023-03-31T18:57:38.300Z,10.08
2023-03-31T19:00:06.350Z,10.07
2023-03-31T19:02:33.025Z,10.07
2023-03-31T19:05:00.267Z,10.10
2023-03-31T19:07:26.654Z,10.11
2023-03-31T19:09:53.096Z,10.10
2023-03-31T19:12:19.552Z,10.11
2023-03-31T19:14:45.933Z,10.10
2023-03-31T19:17:12.361Z,10.09
2023-03-31T19:19:38.732Z,10.11
2023-03-31T19:22:05.128Z,10.10
2023-03-31T19:24:31.623Z,10.08
2023-03-31T19:26:58.482Z,10.05
2023-03-31T19:29:25.355Z,10.03
2023-03-31T19:31:51.948Z,10.07
2023-03-31T19:34:18.414Z,10.07
2023-03-31T19:36:44.790Z,10.08
2023-03-31T19:39:11.646Z,10.06
2023-03-31T19:41:38.076Z,10.03
2023-03-31T19:44:04.580Z,10.03
2023-03-31T19:46:31.314Z,10.06
2023-03-31T19:48:57.806Z,10.04
2023-03-31T19:51:24.209Z,10.04
2023-03-31T19:53:50.764Z,10.03
2023-03-31T19:56:17.895Z,10.05
2023-03-31T19:58:44.878Z,10.04
2023-03-31T20:01:29.433Z,10.03
2023-03-31T20:03:56.438Z,10.04
2023-03-31T20:06:28.543Z,10.02
2023-03-31T20:08:58.036Z,10.01
2023-03-31T20:11:26.075Z,10.00
2023-03-31T20:13:53.054Z,10.01
2023-03-31T20:16:22.505Z,10.04
2023-03-31T20:18:54.732Z,10.02
2023-03-31T20:21:24.678Z,10.04
2023-03-31T20:23:51.172Z,10.01
2023-03-31T20:26:20.769Z,10.02
2023-03-31T20:28:47.942Z,10.01
2023-03-31T20:31:27.389Z,10.01
2023-03-31T20:33:54.964Z,9.99
2023-03-31T20:36:24.021Z,9.98
2023-03-31T20:38:52.295Z,9.99
2023-03-31T20:41:21.084Z,10.00
2023-03-31T20:43:48.233Z,9.99
2023-03-31T20:46:14.974Z,9.99
2023-03-31T20:48:44.624Z,9.99
2023-03-31T20:51:14.688Z,9.98
2023-03-31T20:53:46.846Z,9.96
2023-03-31T20:56:19.763Z,9.97
2023-03-31T20:58:48.002Z,9.96
2023-03-31T21:01:15.410Z,9.98
2023-03-31T21:03:42.402Z,9.94
2023-03-31T21:06:12.185Z,9.94
2023-03-31T21:08:39.382Z,9.95
2023-03-31T21:11:06.466Z,9.90
2023-03-31T21:13:33.130Z,9.85
2023-03-31T21:16:00.702Z,9.84
2023-03-31T21:18:29.065Z,9.85
2023-03-31T21:20:58.327Z,9.86
2023-03-31T21:23:25.962Z,9.86
2023-03-31T21:25:55.443Z,9.86
2023-03-31T21:28:25.298Z,9.84
2023-03-31T21:31:06.417Z,9.85
2023-03-31T21:33:35.550Z,9.86
2023-03-31T21:36:02.568Z,9.87
2023-03-31T21:38:29.039Z,9.89
2023-03-31T21:40:56.039Z,9.85
2023-03-31T21:43:23.573Z,9.86
2023-03-31T21:45:53.171Z,9.85
2023-03-31T21:48:24.962Z,9.84
2023-03-31T21:50:52.638Z,9.87
2023-03-31T21:53:18.989Z,9.85
2023-03-31T21:55:45.369Z,9.86
2023-03-31T21:58:12.143Z,9.86
2023-03-31T22:00:38.495Z,9.86
2023-03-31T22:03:22.042Z,9.86
2023-03-31T22:05:52.598Z,9.86
2023-03-31T22:08:18.989Z,9.82
2023-03-31T22:10:49.948Z,9.83
2023-03-31T22:13:16.598Z,9.85
2023-03-31T22:15:43.746Z,9.86
2023-03-31T22:18:11.863Z,9.88
2023-03-31T22:20:38.886Z,9.87
2023-03-31T22:23:06.342Z,9.86
2023-03-31T22:25:33.428Z,9.84
2023-03-31T22:28:01.217Z,9.83
2023-03-31T22:30:27.723Z,9.83
2023-03-31T22:32:55.011Z,9.83
2023-03-31T22:35:21.797Z,9.83
2023-03-31T22:37:48.131Z,9.84
2023-03-31T22:40:14.505Z,9.84
2023-03-31T22:42:41.834Z,9.84
2023-03-31T22:45:09.291Z,9.85
2023-03-31T22:47:36.078Z,9.83
2023-03-31T22:50:02.693Z,9.83
2023-03-31T22:52:29.055Z,9.84
2023-03-31T22:54:55.505Z,9.84
2023-03-31T22:57:22.000Z,9.83
2023-03-31T22:59:48.430Z,9.83
2023-03-31T23:02:15.274Z,9.84
2023-03-31T23:04:41.661Z,9.84
2023-03-31T23:07:08.132Z,9.82
2023-03-31T23:09:34.529Z,9.81
2023-03-31T23:12:01.053Z,9.83
2023-03-31T23:14:27.563Z,9.85
2023-03-31T23:16:54.967Z,9.83
2023-03-31T23:19:21.735Z,9.84
2023-03-31T23:21:48.287Z,9.82
2023-03-31T23:24:19.181Z,9.83
2023-03-31T23:26:46.387Z,9.83
2023-03-31T23:29:13.213Z,9.83
2023-03-31T23:31:39.867Z,9.84
2023-03-31T23:34:07.248Z,9.85
2023-03-31T23:36:33.664Z,9.87
2023-03-31T23:39:00.025Z,9.87
2023-03-31T23:41:26.656Z,9.90
2023-03-31T23:43:53.690Z,9.88
2023-03-31T23:46:20.277Z,9.89
2023-03-31T23:48:46.706Z,9.89
2023-03-31T23:51:13.387Z,9.90
2023-03-31T23:53:39.956Z,9.90
2023-03-31T23:56:09.193Z,9.88
2023-03-31T23:58:36.233Z,9.88
